createdAt,value
2018-06-25T00:00:54.708Z,11.63
2018-06-25T00:03:23.164Z,8.60
2018-06-25T00:05:51.644Z,6.37
2018-06-25T00:08:20.488Z,4.93
2018-06-25T00:10:48.992Z,6.27
2018-06-25T00:13:17.434Z,8.63
2018-06-25T00:15:45.972Z,10.37
2018-06-25T00:18:14.465Z,8.03
2018-06-25T00:20:42.962Z,10.23
2018-06-25T00:23:11.092Z,9.50
2018-06-25T00:25:39.584Z,8.20
2018-06-25T00:28:09.019Z,7.63
2018-06-25T00:30:37.497Z,8.70
2018-06-25T00:33:05.933Z,9.13
2018-06-25T00:35:34.665Z,8.60
2018-06-25T00:38:03.252Z,9.47
2018-06-25T00:40:31.761Z,9.07
2018-06-25T00:43:00.068Z,9.03
2018-06-25T00:45:29.454Z,7.53
2018-06-25T00:47:58.277Z,13.40
2018-06-25T00:50:27.415Z,9.00
2018-06-25T00:52:55.883Z,9.70
2018-06-25T00:55:24.351Z,11.17
2018-06-25T00:57:52.819Z,10.87
2018-06-25T01:00:21.307Z,10.93
2018-06-25T01:02:49.796Z,7.60
2018-06-25T01:05:18.312Z,7.87
2018-06-25T01:07:46.824Z,11.00
2018-06-25T01:10:15.283Z,9.97
2018-06-25T01:12:43.814Z,9.83
2018-06-25T01:15:12.353Z,10.27
2018-06-25T01:17:40.805Z,7.93
2018-06-25T01:20:09.293Z,10.37
2018-06-25T01:22:37.775Z,6.93
2018-06-25T01:25:06.272Z,8.27
2018-06-25T01:27:34.743Z,6.93
2018-06-25T01:30:03.362Z,11.10
2018-06-25T01:32:31.827Z,8.03
2018-06-25T01:35:00.835Z,8.93
2018-06-25T01:37:29.280Z,10.20
2018-06-25T01:39:57.778Z,10.00
2018-06-25T01:42:26.350Z,7.90
2018-06-25T01:44:54.620Z,11.97
2018-06-25T01:47:23.074Z,8.63
2018-06-25T01:49:51.552Z,11.00
2018-06-25T01:52:20.035Z,8.97
2018-06-25T01:54:49.959Z,12.77
2018-06-25T01:57:18.443Z,12.83
2018-06-25T01:59:46.872Z,8.13
2018-06-25T02:02:15.074Z,14.70
2018-06-25T02:04:43.617Z,15.50
2018-06-25T02:07:12.146Z,12.87
2018-06-25T02:09:40.726Z,12.57
2018-06-25T02:12:09.255Z,12.17
2018-06-25T02:14:37.740Z,9.77
2018-06-25T02:17:06.230Z,11.83
2018-06-25T02:19:34.714Z,11.03
2018-06-25T02:22:03.204Z,11.07
2018-06-25T02:24:31.720Z,8.80
2018-06-25T02:27:00.162Z,14.90
2018-06-25T02:29:28.647Z,15.07
2018-06-25T02:31:57.120Z,13.73
2018-06-25T02:34:25.584Z,13.50
2018-06-25T02:36:54.135Z,8.30
2018-06-25T02:39:22.596Z,12.17
2018-06-25T02:41:51.091Z,15.80
2018-06-25T02:44:19.569Z,11.50
2018-06-25T02:46:48.061Z,14.10
2018-06-25T02:49:16.986Z,13.83
2018-06-25T02:51:45.452Z,10.27
2018-06-25T02:54:13.904Z,15.30
2018-06-25T02:56:42.403Z,13.47
2018-06-25T02:59:11.041Z,14.57
2018-06-25T03:01:39.191Z,9.87
2018-06-25T03:04:07.743Z,9.33
2018-06-25T03:06:36.198Z,13.97
2018-06-25T03:09:07.503Z,12.83
2018-06-25T03:11:36.745Z,12.80
2018-06-25T03:14:05.304Z,14.30
2018-06-25T03:16:33.819Z,17.97
2018-06-25T03:19:02.269Z,13.37
2018-06-25T03:21:30.813Z,14.20
2018-06-25T03:23:59.280Z,14.47
2018-06-25T03:26:27.772Z,16.77
2018-06-25T03:28:56.319Z,17.30
2018-06-25T03:31:24.829Z,17.67
2018-06-25T03:33:52.962Z,15.57
2018-06-25T03:36:21.504Z,15.80
2018-06-25T03:38:49.730Z,14.40
2018-06-25T03:41:18.231Z,19.40
2018-06-25T03:43:46.715Z,13.93
2018-06-25T03:46:15.245Z,19.23
2018-06-25T03:48:43.720Z,21.60
2018-06-25T03:51:12.211Z,12.37
2018-06-25T03:53:40.707Z,15.33
2018-06-25T03:56:09.201Z,19.20
2018-06-25T03:58:37.696Z,16.47
2018-06-25T04:01:06.240Z,19.03
2018-06-25T04:03:34.741Z,18.33
2018-06-25T04:06:03.249Z,13.47
2018-06-25T04:11:25.225Z,14.63
2018-06-25T04:13:53.675Z,11.80
2018-06-25T04:16:22.141Z,15.07
2018-06-25T04:19:06.320Z,12.77
2018-06-25T04:21:36.544Z,12.47
2018-06-25T04:24:05.193Z,12.83
2018-06-25T04:26:33.838Z,12.67
2018-06-25T04:29:03.127Z,15.63
2018-06-25T04:31:31.614Z,14.07
2018-06-25T04:34:00.249Z,11.67
2018-06-25T04:36:28.882Z,12.60
2018-06-25T04:38:57.382Z,13.13
2018-06-25T04:41:25.888Z,10.13
2018-06-25T04:43:54.346Z,8.90
2018-06-25T04:46:23.856Z,9.87
2018-06-25T04:48:52.320Z,10.23
2018-06-25T04:51:20.795Z,14.23
2018-06-25T04:53:49.382Z,10.83
2018-06-25T04:56:17.827Z,14.43
2018-06-25T04:58:46.376Z,9.77
2018-06-25T05:01:14.869Z,11.20
2018-06-25T05:03:43.411Z,15.77
2018-06-25T05:06:11.916Z,10.80
2018-06-25T05:08:40.424Z,10.03
2018-06-25T05:11:08.977Z,15.93
2018-06-25T05:13:37.444Z,12.20
2018-06-25T05:16:06.088Z,11.40
2018-06-25T05:18:34.557Z,13.07
2018-06-25T05:21:03.153Z,10.70
2018-06-25T05:23:31.657Z,13.30
2018-06-25T05:26:00.159Z,13.80
2018-06-25T05:28:28.611Z,13.53
2018-06-25T05:30:57.107Z,10.00
2018-06-25T05:33:25.586Z,8.97
2018-06-25T05:35:54.037Z,8.73
2018-06-25T05:38:22.516Z,7.87
2018-06-25T05:40:50.967Z,7.30
2018-06-25T05:43:19.446Z,7.23
2018-06-25T05:45:47.972Z,5.00
2018-06-25T05:48:16.529Z,6.60
2018-06-25T05:50:44.977Z,8.93
2018-06-25T05:53:13.440Z,4.37
2018-06-25T05:55:41.919Z,8.40
2018-06-25T05:58:10.465Z,6.53
2018-06-25T06:00:38.958Z,4.33
2018-06-25T06:03:07.429Z,4.00
2018-06-25T06:05:35.950Z,5.80
2018-06-25T06:08:04.548Z,5.00
2018-06-25T06:10:33.002Z,4.00
2018-06-25T06:13:01.552Z,7.47
2018-06-25T06:15:30.043Z,12.20
2018-06-25T06:17:58.488Z,6.17
2018-06-25T06:20:27.509Z,4.73
2018-06-25T06:22:55.994Z,6.43
2018-06-25T06:25:24.508Z,5.50
2018-06-25T06:27:52.966Z,7.13
2018-06-25T06:30:21.430Z,4.60
2018-06-25T06:32:49.889Z,5.67
2018-06-25T06:35:18.406Z,6.97
2018-06-25T06:37:46.840Z,7.90
2018-06-25T06:40:15.361Z,8.23
2018-06-25T06:42:43.865Z,8.10
2018-06-25T06:45:12.460Z,10.47
2018-06-25T06:47:40.940Z,8.40
2018-06-25T06:50:09.208Z,6.60
2018-06-25T06:52:37.729Z,11.03
2018-06-25T06:55:05.981Z,5.20
2018-06-25T06:57:34.219Z,11.13
2018-06-25T07:00:02.321Z,6.90
2018-06-25T07:02:31.073Z,4.73
2018-06-25T07:04:59.606Z,8.00
2018-06-25T07:07:28.124Z,9.47
2018-06-25T07:09:56.261Z,8.40
2018-06-25T07:12:24.691Z,5.20
2018-06-25T07:14:53.193Z,4.37
2018-06-25T07:17:21.685Z,7.00
2018-06-25T07:19:50.145Z,4.23
2018-06-25T07:22:18.662Z,8.23
2018-06-25T07:24:47.147Z,6.10
2018-06-25T07:27:15.625Z,7.93
2018-06-25T07:29:44.181Z,5.30
2018-06-25T07:32:12.695Z,9.97
2018-06-25T07:34:41.171Z,6.40
2018-06-25T07:37:09.683Z,6.20
2018-06-25T07:39:38.190Z,5.80
2018-06-25T07:42:06.705Z,5.80
2018-06-25T07:44:35.203Z,10.13
2018-06-25T07:47:03.761Z,5.60
2018-06-25T07:49:32.203Z,4.90
2018-06-25T07:52:01.259Z,7.50
2018-06-25T07:54:29.785Z,7.07
2018-06-25T07:56:58.264Z,6.87
2018-06-25T07:59:26.785Z,5.63
2018-06-25T08:01:55.274Z,5.63
2018-06-25T08:04:23.841Z,4.47
2018-06-25T08:06:52.319Z,7.77
2018-06-25T08:09:20.828Z,6.13
2018-06-25T08:11:49.373Z,5.23
2018-06-25T08:14:17.847Z,6.37
2018-06-25T08:16:46.356Z,5.83
2018-06-25T08:19:14.536Z,5.80
2018-06-25T08:21:43.017Z,13.83
2018-06-25T08:24:11.485Z,5.23
2018-06-25T08:26:39.972Z,8.20
2018-06-25T08:29:08.464Z,6.57
2018-06-25T08:31:36.917Z,6.70
2018-06-25T08:34:05.607Z,5.13
2018-06-25T08:36:34.032Z,7.80
2018-06-25T08:39:02.545Z,5.17
2018-06-25T08:41:31.064Z,7.50
2018-06-25T08:43:59.575Z,4.90
2018-06-25T08:46:28.083Z,7.20
2018-06-25T08:48:56.618Z,6.97
2018-06-25T08:51:25.254Z,5.20
2018-06-25T08:53:53.752Z,9.43
2018-06-25T08:56:23.037Z,5.33
2018-06-25T08:58:51.502Z,7.87
2018-06-25T09:01:20.205Z,7.73
2018-06-25T09:03:48.504Z,8.43
2018-06-25T09:06:16.982Z,6.20
2018-06-25T09:08:45.616Z,7.47
2018-06-25T09:11:14.145Z,6.83
2018-06-25T09:13:42.894Z,7.53
2018-06-25T09:16:11.408Z,10.23
2018-06-25T09:18:39.611Z,7.77
2018-06-25T09:21:08.118Z,11.77
2018-06-25T09:23:37.311Z,11.77
2018-06-25T09:26:06.026Z,5.17
2018-06-25T09:28:34.591Z,8.10
2018-06-25T09:31:03.072Z,9.13
2018-06-25T09:33:31.666Z,6.27
2018-06-25T09:36:00.152Z,6.57
2018-06-25T09:38:28.634Z,7.37
2018-06-25T09:40:57.298Z,6.57
2018-06-25T09:43:25.756Z,6.90
2018-06-25T09:45:54.256Z,6.43
2018-06-25T09:48:22.724Z,5.80
2018-06-25T09:50:51.174Z,5.90
2018-06-25T09:53:19.687Z,6.90
2018-06-25T09:55:48.157Z,7.43
2018-06-25T09:58:16.640Z,9.40
2018-06-25T10:00:50.274Z,8.20
2018-06-25T10:03:18.789Z,5.10
2018-06-25T10:05:47.267Z,5.77
2018-06-25T10:08:15.703Z,4.30
2018-06-25T10:10:44.226Z,5.50
2018-06-25T10:13:12.766Z,3.80
2018-06-25T10:15:41.223Z,5.00
2018-06-25T10:18:09.463Z,3.80
2018-06-25T10:20:38.082Z,8.60
2018-06-25T10:23:06.803Z,4.80
2018-06-25T10:25:35.309Z,3.57
2018-06-25T10:28:03.856Z,4.70
2018-06-25T10:30:32.372Z,2.93
2018-06-25T10:33:00.862Z,5.07
2018-06-25T10:35:29.369Z,6.50
2018-06-25T10:37:57.850Z,4.60
2018-06-25T10:40:26.473Z,6.37
2018-06-25T10:42:54.931Z,7.13
2018-06-25T10:45:23.396Z,5.17
2018-06-25T10:47:51.936Z,4.50
2018-06-25T10:50:20.420Z,6.30
2018-06-25T10:52:48.884Z,11.93
2018-06-25T10:55:17.247Z,6.30
2018-06-25T10:57:45.770Z,4.97
2018-06-25T11:00:14.569Z,6.20
2018-06-25T11:02:42.850Z,4.23
2018-06-25T11:05:11.059Z,6.73
2018-06-25T11:07:40.686Z,5.27
2018-06-25T11:10:09.628Z,5.50
2018-06-25T11:12:38.164Z,5.67
2018-06-25T11:15:07.044Z,6.73
2018-06-25T11:17:35.547Z,6.00
2018-06-25T11:20:04.130Z,7.73
2018-06-25T11:22:32.613Z,8.47
2018-06-25T11:25:01.118Z,7.50
2018-06-25T11:27:29.664Z,6.57
2018-06-25T11:29:58.146Z,9.80
2018-06-25T11:32:26.626Z,7.67
2018-06-25T11:34:55.122Z,8.37
2018-06-25T11:37:23.299Z,9.43
2018-06-25T11:39:51.787Z,10.73
2018-06-25T11:42:20.291Z,9.47
2018-06-25T11:44:48.807Z,5.90
2018-06-25T11:47:17.287Z,15.30
2018-06-25T11:49:45.824Z,7.27
2018-06-25T11:52:14.318Z,8.33
2018-06-25T11:54:42.910Z,9.30
2018-06-25T11:57:11.373Z,8.77
2018-06-25T11:59:39.697Z,6.80
2018-06-25T12:02:08.254Z,9.10
2018-06-25T12:04:36.741Z,8.20
2018-06-25T12:09:42.232Z,9.40
2018-06-25T12:12:10.776Z,7.60
2018-06-25T12:14:39.375Z,12.37
2018-06-25T12:17:08.020Z,9.97
2018-06-25T12:19:36.599Z,10.07
2018-06-25T12:22:05.111Z,7.57
2018-06-25T12:24:33.609Z,11.93
2018-06-25T12:27:02.262Z,9.10
2018-06-25T12:29:30.807Z,8.00
2018-06-25T12:31:59.996Z,7.27
2018-06-25T12:34:28.201Z,6.70
2018-06-25T12:36:56.739Z,5.13
2018-06-25T12:39:25.214Z,8.27
2018-06-25T12:41:53.770Z,7.63
2018-06-25T12:44:22.408Z,8.97
2018-06-25T12:46:50.942Z,8.97
2018-06-25T12:49:19.711Z,6.33
2018-06-25T12:51:48.335Z,10.63
2018-06-25T12:54:16.874Z,6.93
2018-06-25T12:56:45.398Z,9.30
2018-06-25T12:59:13.917Z,8.50
2018-06-25T13:01:42.457Z,9.30
2018-06-25T13:04:11.002Z,6.97
2018-06-25T13:06:39.547Z,10.03
2018-06-25T13:09:11.010Z,11.47
2018-06-25T13:11:39.426Z,7.73
2018-06-25T13:14:08.529Z,11.13
2018-06-25T13:16:37.493Z,12.23
2018-06-25T13:19:06.480Z,6.90
2018-06-25T13:21:34.922Z,6.60
2018-06-25T13:24:03.071Z,7.53
2018-06-25T13:26:31.595Z,12.60
2018-06-25T13:29:00.129Z,6.50
2018-06-25T13:31:28.599Z,4.47
2018-06-25T13:33:57.082Z,8.10
2018-06-25T13:36:26.376Z,4.70
2018-06-25T13:38:54.958Z,4.63
2018-06-25T13:41:23.699Z,4.87
2018-06-25T13:43:52.192Z,6.77
2018-06-25T13:46:20.744Z,6.47
2018-06-25T13:48:49.342Z,4.67
2018-06-25T13:51:17.924Z,4.40
2018-06-25T13:53:46.395Z,4.83
2018-06-25T13:56:14.959Z,5.47
2018-06-25T13:58:43.428Z,6.40
2018-06-25T14:01:11.951Z,5.60
2018-06-25T14:03:40.611Z,4.77
2018-06-25T14:06:09.147Z,5.47
2018-06-25T14:08:37.627Z,3.27
2018-06-25T14:11:06.478Z,2.83
2018-06-25T14:13:35.092Z,3.23
2018-06-25T14:16:03.628Z,4.33
2018-06-25T14:18:32.133Z,3.63
2018-06-25T14:21:00.624Z,4.23
2018-06-25T14:23:29.125Z,35.27
2018-06-25T14:26:03.102Z,6.20
2018-06-25T14:28:32.968Z,8.43
2018-06-25T14:31:07.955Z,3.80
2018-06-25T14:33:47.659Z,3.77
2018-06-25T14:36:16.248Z,5.83
2018-06-25T14:38:44.773Z,3.70
2018-06-25T14:41:13.258Z,3.63
2018-06-25T14:43:41.749Z,4.13
2018-06-25T14:46:10.228Z,5.40
2018-06-25T14:48:38.738Z,3.20
2018-06-25T14:51:06.929Z,7.23
2018-06-25T14:53:35.474Z,4.13
2018-06-25T14:56:04.024Z,2.73
2018-06-25T14:58:32.631Z,3.60
2018-06-25T15:01:01.158Z,6.03
2018-06-25T15:03:29.678Z,3.17
2018-06-25T15:05:58.472Z,3.00
2018-06-25T15:08:27.076Z,2.77
2018-06-25T15:10:55.580Z,5.73
2018-06-25T15:13:24.143Z,3.20
2018-06-25T15:15:52.659Z,5.10
2018-06-25T15:18:21.280Z,3.40
2018-06-25T15:20:49.530Z,4.57
2018-06-25T15:23:18.122Z,3.77
2018-06-25T15:25:46.923Z,3.70
2018-06-25T15:28:15.500Z,7.70
2018-06-25T15:30:44.026Z,4.57
2018-06-25T15:33:12.553Z,12.50
2018-06-25T15:35:41.042Z,5.43
2018-06-25T15:38:09.586Z,5.90
2018-06-25T15:40:38.140Z,4.30
2018-06-25T15:43:06.813Z,5.63
2018-06-25T15:45:35.329Z,3.97
2018-06-25T15:48:04.038Z,5.63
2018-06-25T15:50:32.557Z,7.97
2018-06-25T15:53:01.179Z,5.73
2018-06-25T15:55:29.661Z,4.27
2018-06-25T15:57:58.297Z,5.07
2018-06-25T16:00:26.874Z,5.40
2018-06-25T16:02:55.647Z,8.83
2018-06-25T16:05:23.842Z,6.73
2018-06-25T16:07:52.523Z,6.83
2018-06-25T16:10:21.010Z,5.07
2018-06-25T16:12:49.499Z,11.73
2018-06-25T16:15:18.116Z,6.30
2018-06-25T16:17:46.804Z,6.50
2018-06-25T16:20:15.394Z,5.30
2018-06-25T16:22:43.923Z,6.30
2018-06-25T16:25:12.595Z,9.67
2018-06-25T16:27:41.221Z,5.40
2018-06-25T16:30:09.896Z,4.97
2018-06-25T16:32:38.658Z,5.67
2018-06-25T16:35:07.470Z,3.57
2018-06-25T16:37:36.022Z,5.80
2018-06-25T16:40:04.661Z,8.10
2018-06-25T16:42:33.276Z,9.30
2018-06-25T16:45:02.820Z,6.80
2018-06-25T16:47:31.358Z,5.27
2018-06-25T16:50:00.087Z,4.10
2018-06-25T16:52:29.610Z,3.83
2018-06-25T16:54:58.304Z,8.50
2018-06-25T16:57:27.039Z,8.30
2018-06-25T16:59:55.684Z,4.57
2018-06-25T17:02:24.468Z,8.37
2018-06-25T17:04:53.231Z,4.63
2018-06-25T17:07:21.926Z,3.90
2018-06-25T17:09:50.659Z,10.17
2018-06-25T17:12:19.361Z,4.37
2018-06-25T17:14:47.917Z,5.67
2018-06-25T17:17:16.841Z,5.97
2018-06-25T17:19:46.240Z,6.23
2018-06-25T17:22:15.173Z,5.37
2018-06-25T17:24:44.141Z,5.20
2018-06-25T17:27:13.203Z,6.20
2018-06-25T17:29:41.826Z,3.80
2018-06-25T17:32:11.017Z,4.67
2018-06-25T17:34:39.757Z,5.63
2018-06-25T17:37:08.122Z,6.53
2018-06-25T17:39:36.809Z,4.00
2018-06-25T17:42:05.532Z,6.40
2018-06-25T17:44:33.699Z,7.03
2018-06-25T17:47:02.527Z,6.30
2018-06-25T17:49:31.209Z,3.60
2018-06-25T17:51:59.926Z,7.03
2018-06-25T17:54:28.751Z,7.83
2018-06-25T17:56:57.450Z,5.10
2018-06-25T17:59:27.001Z,6.10
2018-06-25T18:01:55.700Z,4.13
2018-06-25T18:04:24.624Z,4.33
2018-06-25T18:06:53.620Z,5.87
2018-06-25T18:09:22.443Z,5.30
2018-06-25T18:11:52.043Z,5.33
2018-06-25T18:14:20.939Z,3.90
2018-06-25T18:16:49.749Z,7.30
2018-06-25T18:19:18.634Z,5.00
2018-06-25T18:21:48.883Z,5.60
2018-06-25T18:24:17.848Z,7.70
2018-06-25T18:26:47.889Z,3.07
2018-06-25T18:29:17.125Z,6.83
2018-06-25T18:31:46.561Z,2.97
2018-06-25T18:34:15.320Z,4.90
2018-06-25T18:36:46.266Z,5.80
2018-06-25T18:39:15.216Z,6.57
2018-06-25T18:41:45.271Z,7.07
2018-06-25T18:44:14.702Z,4.90
2018-06-25T18:46:43.887Z,9.40
2018-06-25T18:49:13.591Z,10.80
2018-06-25T18:51:43.162Z,10.67
2018-06-25T18:56:53.621Z,5.03
2018-06-25T18:59:22.992Z,5.13
2018-06-25T19:01:52.837Z,4.20
2018-06-25T19:04:23.676Z,6.77
2018-06-25T19:06:55.610Z,3.63
2018-06-25T19:09:25.034Z,3.90
2018-06-25T19:11:54.766Z,3.57
2018-06-25T19:14:24.611Z,3.30
2018-06-25T19:17:00.390Z,4.87
2018-06-25T19:19:31.222Z,3.93
2018-06-25T19:22:01.308Z,8.20
2018-06-25T19:24:30.895Z,3.60
2018-06-25T19:27:00.967Z,4.67
2018-06-25T19:29:30.043Z,5.10
2018-06-25T19:32:00.282Z,3.00
2018-06-25T19:34:29.530Z,3.90
2018-06-25T19:36:59.106Z,6.30
2018-06-25T19:39:28.497Z,3.90
2018-06-25T19:41:57.791Z,3.60
2018-06-25T19:44:27.931Z,5.67
2018-06-25T19:46:59.639Z,2.60
2018-06-25T19:49:29.220Z,4.30
2018-06-25T19:51:58.487Z,2.20
2018-06-25T19:54:28.316Z,9.40
2018-06-25T19:56:57.348Z,7.03
2018-06-25T19:59:26.602Z,5.60
2018-06-25T20:01:55.038Z,5.60
2018-06-25T20:04:24.124Z,6.03
2018-06-25T20:06:52.983Z,5.40
2018-06-25T20:09:22.606Z,5.80
2018-06-25T20:11:51.580Z,4.47
2018-06-25T20:14:19.856Z,3.30
2018-06-25T20:16:48.743Z,5.10
2018-06-25T20:19:17.431Z,5.10
2018-06-25T20:21:46.097Z,5.20
2018-06-25T20:24:14.777Z,2.83
2018-06-25T20:26:43.558Z,3.13
2018-06-25T20:29:11.866Z,3.27
2018-06-25T20:31:41.566Z,3.30
2018-06-25T20:34:10.401Z,2.70
2018-06-25T20:36:38.959Z,3.90
2018-06-25T20:39:10.231Z,8.50
2018-06-25T20:41:38.767Z,3.30
2018-06-25T20:44:07.495Z,3.00
2018-06-25T20:46:36.257Z,2.93
2018-06-25T20:49:04.800Z,5.20
2018-06-25T20:51:33.693Z,3.70
2018-06-25T20:54:02.638Z,3.20
2018-06-25T20:56:31.670Z,5.83
2018-06-25T20:59:00.262Z,2.63
2018-06-25T21:01:28.795Z,3.90
2018-06-25T21:03:57.424Z,5.40
2018-06-25T21:06:26.086Z,7.90
2018-06-25T21:08:54.550Z,2.37
2018-06-25T21:11:22.861Z,2.17
2018-06-25T21:13:51.451Z,2.50
2018-06-25T21:16:20.008Z,3.97
2018-06-25T21:18:48.253Z,2.50
2018-06-25T21:21:16.767Z,3.77
2018-06-25T21:26:11.049Z,4.00
2018-06-25T21:28:39.677Z,2.00
2018-06-25T21:31:08.395Z,2.27
2018-06-25T21:33:37.277Z,2.43
2018-06-25T21:36:05.825Z,5.40
2018-06-25T21:38:34.637Z,2.90
2018-06-25T21:41:03.204Z,2.40
2018-06-25T21:43:31.807Z,2.40
2018-06-25T21:46:00.310Z,3.30
2018-06-25T21:48:28.792Z,4.40
2018-06-25T21:50:57.331Z,7.63
2018-06-25T21:53:25.828Z,4.33
2018-06-25T21:55:54.322Z,2.33
2018-06-25T21:58:23.791Z,1.90
2018-06-25T22:00:53.267Z,4.13
2018-06-25T22:03:21.766Z,6.00
2018-06-25T22:05:50.592Z,7.10
2018-06-25T22:08:19.162Z,5.43
2018-06-25T22:10:47.654Z,2.03
2018-06-25T22:13:16.149Z,2.03
2018-06-25T22:15:44.690Z,3.83
2018-06-25T22:18:13.162Z,5.10
2018-06-25T22:20:41.689Z,2.33
2018-06-25T22:23:10.190Z,4.73
2018-06-25T22:25:38.674Z,2.67
2018-06-25T22:28:07.148Z,2.10
2018-06-25T22:30:35.661Z,2.10
2018-06-25T22:33:04.138Z,4.03
2018-06-25T22:35:32.658Z,3.40
2018-06-25T22:38:01.108Z,5.70
2018-06-25T22:40:29.599Z,3.70
2018-06-25T22:42:58.074Z,3.83
2018-06-25T22:45:27.083Z,2.13
2018-06-25T22:47:55.555Z,13.63
2018-06-25T22:50:24.001Z,2.50
2018-06-25T22:52:52.480Z,3.83
2018-06-25T22:55:20.967Z,2.90
2018-06-25T22:57:49.479Z,1.77
2018-06-25T23:00:17.953Z,2.30
2018-06-25T23:02:46.107Z,2.37
2018-06-25T23:05:14.608Z,3.17
2018-06-25T23:07:43.751Z,3.00
2018-06-25T23:10:12.771Z,4.27
2018-06-25T23:12:41.245Z,4.20
2018-06-25T23:15:09.709Z,2.40
2018-06-25T23:17:38.229Z,3.07
2018-06-25T23:20:06.706Z,2.70
2018-06-25T23:22:35.158Z,2.73
2018-06-25T23:25:03.702Z,3.53
2018-06-25T23:27:32.191Z,2.60
2018-06-25T23:30:00.638Z,1.97
2018-06-25T23:32:29.102Z,2.27
2018-06-25T23:34:57.631Z,4.73
2018-06-25T23:37:26.144Z,3.00
2018-06-25T23:39:54.628Z,6.10
2018-06-25T23:42:22.816Z,2.00
2018-06-25T23:44:51.009Z,2.17
2018-06-25T23:47:19.504Z,3.00
2018-06-25T23:49:48.050Z,2.53
2018-06-25T23:52:16.422Z,2.77
2018-06-25T23:54:44.865Z,2.50
2018-06-25T23:57:13.312Z,5.80
2018-06-25T23:59:41.795Z,1.67
